createdAt,value
2024-02-27T00:00:45.122Z,27.37
2024-02-27T00:03:12.814Z,37.97
2024-02-27T00:05:40.479Z,37.43
2024-02-27T00:08:08.973Z,41.57
2024-02-27T00:10:36.673Z,37.70
2024-02-27T00:13:05.135Z,39.43
2024-02-27T00:15:32.898Z,39.17
2024-02-27T00:18:02.218Z,38.27
2024-02-27T00:20:29.923Z,35.27
2024-02-27T00:22:57.570Z,38.10
2024-02-27T00:25:31.331Z,37.93
2024-02-27T00:27:59.012Z,37.17
2024-02-27T00:30:26.746Z,33.67
2024-02-27T00:32:54.732Z,34.40
2024-02-27T00:35:23.784Z,37.63
2024-02-27T00:37:51.437Z,38.83
2024-02-27T00:40:19.416Z,36.13
2024-02-27T00:42:47.401Z,37.37
2024-02-27T00:45:15.173Z,33.50
2024-02-27T00:47:42.926Z,34.80
2024-02-27T00:50:11.017Z,33.00
2024-02-27T00:52:40.067Z,39.03
2024-02-27T00:55:08.408Z,36.47
2024-02-27T00:57:36.435Z,40.60
2024-02-27T01:00:10.075Z,38.10
2024-02-27T01:02:38.646Z,33.13
2024-02-27T01:05:07.555Z,33.47
2024-02-27T01:07:35.645Z,36.93
2024-02-27T01:10:07.232Z,37.47
2024-02-27T01:12:34.994Z,37.50
2024-02-27T01:15:03.986Z,38.87
2024-02-27T01:17:32.123Z,37.00
2024-02-27T01:19:59.824Z,34.33
2024-02-27T01:22:28.631Z,34.47
2024-02-27T01:24:56.671Z,32.93
2024-02-27T01:27:25.968Z,34.03
2024-02-27T01:29:54.852Z,38.53
2024-02-27T01:32:22.989Z,38.17
2024-02-27T01:34:51.008Z,35.27
2024-02-27T01:37:19.115Z,41.03
2024-02-27T01:39:47.341Z,38.27
2024-02-27T01:42:15.087Z,33.07
2024-02-27T01:44:50.206Z,38.13
2024-02-27T01:47:19.145Z,31.40
2024-02-27T01:49:48.393Z,35.47
2024-02-27T01:52:17.140Z,33.20
2024-02-27T01:54:46.932Z,33.20
2024-02-27T01:57:16.092Z,33.17
2024-02-27T01:59:45.338Z,37.97
2024-02-27T02:02:15.205Z,36.60
2024-02-27T02:04:42.946Z,32.23
2024-02-27T02:07:11.964Z,34.27
2024-02-27T02:09:40.151Z,33.23
2024-02-27T02:12:08.777Z,33.17
2024-02-27T02:14:36.819Z,34.00
2024-02-27T02:17:06.301Z,39.87
2024-02-27T02:19:34.099Z,33.17
2024-02-27T02:22:03.685Z,35.87
2024-02-27T02:24:32.688Z,34.83
2024-02-27T02:27:01.081Z,35.23
2024-02-27T02:29:29.889Z,33.00
2024-02-27T02:31:57.673Z,39.40
2024-02-27T02:34:25.451Z,32.87
2024-02-27T02:36:53.250Z,30.93
2024-02-27T02:39:22.563Z,28.80
2024-02-27T02:41:50.215Z,32.97
2024-02-27T02:44:17.918Z,31.60
2024-02-27T02:46:45.592Z,26.63
2024-02-27T02:49:13.470Z,24.93
2024-02-27T02:51:41.275Z,28.43
2024-02-27T02:54:08.993Z,31.93
2024-02-27T02:56:38.077Z,27.87
2024-02-27T02:59:06.224Z,32.10
2024-02-27T03:01:33.949Z,30.50
2024-02-27T03:04:01.638Z,34.70
2024-02-27T03:06:29.349Z,30.97
2024-02-27T03:08:57.026Z,33.67
2024-02-27T03:11:24.919Z,33.47
2024-02-27T03:13:53.998Z,34.10
2024-02-27T03:16:21.767Z,32.73
2024-02-27T03:18:49.554Z,34.13
2024-02-27T03:21:17.342Z,35.27
2024-02-27T03:23:45.000Z,39.47
2024-02-27T03:26:17.428Z,39.07
2024-02-27T03:28:45.072Z,39.50
2024-02-27T03:31:14.082Z,41.60
2024-02-27T03:33:42.063Z,36.63
2024-02-27T03:36:10.278Z,40.17
2024-02-27T03:38:37.936Z,35.40
2024-02-27T03:41:05.844Z,39.77
2024-02-27T03:43:33.514Z,37.63
2024-02-27T03:46:01.146Z,35.73
2024-02-27T03:48:30.373Z,38.23
2024-02-27T03:50:58.393Z,39.37
2024-02-27T03:53:26.157Z,38.30
2024-02-27T03:55:53.797Z,34.53
2024-02-27T03:58:21.447Z,32.33
2024-02-27T04:00:49.533Z,31.77
2024-02-27T04:03:17.376Z,36.97
2024-02-27T04:05:46.450Z,33.33
2024-02-27T04:08:14.164Z,32.83
2024-02-27T04:10:42.137Z,33.03
2024-02-27T04:13:09.775Z,32.37
2024-02-27T04:15:37.488Z,30.03
2024-02-27T04:18:07.232Z,27.87
2024-02-27T04:20:34.998Z,25.10
2024-02-27T04:23:04.451Z,27.83
2024-02-27T04:25:33.037Z,28.80
2024-02-27T04:28:00.700Z,27.37
2024-02-27T04:30:28.668Z,25.17
2024-02-27T04:32:56.523Z,27.77
2024-02-27T04:35:24.434Z,29.83
2024-02-27T04:37:52.196Z,30.97
2024-02-27T04:40:21.381Z,28.87
2024-02-27T04:42:49.188Z,29.70
2024-02-27T04:45:17.036Z,31.00
2024-02-27T04:47:44.794Z,30.13
2024-02-27T04:50:12.537Z,32.00
2024-02-27T04:52:40.218Z,33.57
2024-02-27T04:55:08.892Z,29.40
2024-02-27T04:57:37.879Z,32.97
2024-02-27T05:00:07.799Z,34.13
2024-02-27T05:02:35.472Z,32.13
2024-02-27T05:05:03.235Z,32.47
2024-02-27T05:07:30.851Z,30.30
2024-02-27T05:09:58.565Z,29.53
2024-02-27T05:12:26.214Z,30.20
2024-02-27T05:14:55.252Z,32.67
2024-02-27T05:17:22.906Z,31.43
2024-02-27T05:19:50.612Z,29.47
2024-02-27T05:22:18.371Z,26.43
2024-02-27T05:24:46.208Z,27.87
2024-02-27T05:27:14.521Z,32.33
2024-02-27T05:29:42.268Z,28.80
2024-02-27T05:32:11.426Z,29.93
2024-02-27T05:34:39.248Z,27.33
2024-02-27T05:37:07.320Z,26.77
2024-02-27T05:39:35.097Z,26.20
2024-02-27T05:42:02.978Z,27.60
2024-02-27T05:44:30.638Z,30.50
2024-02-27T05:46:58.298Z,32.47
2024-02-27T05:49:27.372Z,29.57
2024-02-27T05:51:55.035Z,30.00
2024-02-27T05:54:22.726Z,31.50
2024-02-27T05:56:50.510Z,29.97
2024-02-27T05:59:18.220Z,30.40
2024-02-27T06:01:45.998Z,33.17
2024-02-27T06:04:13.833Z,31.43
2024-02-27T06:06:42.993Z,32.10
2024-02-27T06:09:10.668Z,35.63
2024-02-27T06:11:38.383Z,32.67
2024-02-27T06:14:05.976Z,31.87
2024-02-27T06:16:34.475Z,33.40
2024-02-27T06:19:02.259Z,29.57
2024-02-27T06:21:47.789Z,29.33
2024-02-27T06:24:17.007Z,31.47
2024-02-27T06:26:44.689Z,31.13
2024-02-27T06:29:12.383Z,32.50
2024-02-27T06:31:40.125Z,32.17
2024-02-27T06:34:07.915Z,32.57
2024-02-27T06:36:35.676Z,34.90
2024-02-27T06:39:03.438Z,31.63
2024-02-27T06:41:32.432Z,34.50
2024-02-27T06:44:00.070Z,31.93
2024-02-27T06:46:27.738Z,34.10
2024-02-27T06:49:03.777Z,32.67
2024-02-27T06:51:39.216Z,36.20
2024-02-27T06:54:07.402Z,31.17
2024-02-27T06:56:36.424Z,34.07
2024-02-27T06:59:04.086Z,36.60
2024-02-27T07:01:32.049Z,34.63
2024-02-27T07:03:59.805Z,33.83
2024-02-27T07:06:27.490Z,30.33
2024-02-27T07:08:56.589Z,29.80
2024-02-27T07:11:24.408Z,29.63
2024-02-27T07:13:53.443Z,30.57
2024-02-27T07:16:21.085Z,33.43
2024-02-27T07:18:49.570Z,33.07
2024-02-27T07:21:20.566Z,30.60
2024-02-27T07:23:48.800Z,29.07
2024-02-27T07:26:16.617Z,32.50
2024-02-27T07:28:48.121Z,28.47
2024-02-27T07:31:19.892Z,34.37
2024-02-27T07:33:47.688Z,28.90
2024-02-27T07:36:15.485Z,29.50
2024-02-27T07:38:43.140Z,31.70
2024-02-27T07:41:11.443Z,29.10
2024-02-27T07:43:39.114Z,28.97
2024-02-27T07:46:08.228Z,30.00
2024-02-27T07:48:37.297Z,33.20
2024-02-27T07:51:05.575Z,30.17
2024-02-27T07:53:34.443Z,31.63
2024-02-27T07:56:02.418Z,30.27
2024-02-27T07:58:30.036Z,32.37
2024-02-27T08:00:57.882Z,30.90
2024-02-27T08:03:25.859Z,32.60
2024-02-27T08:05:55.073Z,31.00
2024-02-27T08:08:23.639Z,29.43
2024-02-27T08:10:51.296Z,29.73
2024-02-27T08:13:23.767Z,30.83
2024-02-27T08:15:52.299Z,31.73
2024-02-27T08:18:20.300Z,30.10
2024-02-27T08:20:49.049Z,27.87
2024-02-27T08:23:18.214Z,33.63
2024-02-27T08:25:46.019Z,28.30
2024-02-27T08:28:13.825Z,29.77
2024-02-27T08:30:41.519Z,27.67
2024-02-27T08:33:09.358Z,28.13
2024-02-27T08:35:37.054Z,28.20
2024-02-27T08:38:05.216Z,27.70
2024-02-27T08:40:34.713Z,28.77
2024-02-27T08:43:02.404Z,28.07
2024-02-27T08:45:31.922Z,28.63
2024-02-27T08:47:59.708Z,29.33
2024-02-27T08:50:27.379Z,26.87
2024-02-27T08:52:55.001Z,30.57
2024-02-27T08:55:26.186Z,29.00
2024-02-27T08:57:55.270Z,28.63
2024-02-27T09:00:24.418Z,27.43
2024-02-27T09:02:52.048Z,30.23
2024-02-27T09:05:19.847Z,27.33
2024-02-27T09:07:47.562Z,28.40
2024-02-27T09:10:15.166Z,28.17
2024-02-27T09:12:43.164Z,24.33
2024-02-27T09:15:12.613Z,25.90
2024-02-27T09:17:40.403Z,26.60
2024-02-27T09:20:10.113Z,26.27
2024-02-27T09:22:39.075Z,22.97
2024-02-27T09:25:07.299Z,23.03
2024-02-27T09:27:36.920Z,26.43
2024-02-27T09:30:05.882Z,22.30
2024-02-27T09:32:34.959Z,23.73
2024-02-27T09:35:02.897Z,23.93
2024-02-27T09:37:30.732Z,19.67
2024-02-27T09:39:59.723Z,22.70
2024-02-27T09:42:35.191Z,20.87
2024-02-27T09:45:07.505Z,25.07
2024-02-27T09:47:40.007Z,23.43
2024-02-27T09:50:10.572Z,31.07
2024-02-27T09:52:39.202Z,22.83
2024-02-27T09:55:09.755Z,24.07
2024-02-27T09:57:38.791Z,21.67
2024-02-27T10:00:07.914Z,20.70
2024-02-27T10:02:39.063Z,19.00
2024-02-27T10:05:08.853Z,17.47
2024-02-27T10:07:36.599Z,18.10
2024-02-27T10:10:04.802Z,17.90
2024-02-27T10:12:32.481Z,17.43
2024-02-27T10:15:00.276Z,21.37
2024-02-27T10:17:29.074Z,23.30
2024-02-27T10:19:58.300Z,19.33
2024-02-27T10:22:26.052Z,23.00
2024-02-27T10:25:05.623Z,22.37
2024-02-27T10:27:33.516Z,21.70
2024-02-27T10:30:01.834Z,21.03
2024-02-27T10:32:33.233Z,23.50
2024-02-27T10:35:04.201Z,21.37
2024-02-27T10:37:33.666Z,19.40
2024-02-27T10:40:02.762Z,22.23
2024-02-27T10:42:30.607Z,18.97
2024-02-27T10:44:58.409Z,20.13
2024-02-27T10:47:27.588Z,19.60
2024-02-27T10:49:56.231Z,18.93
2024-02-27T10:52:27.561Z,18.43
2024-02-27T10:54:57.431Z,15.63
2024-02-27T10:57:26.567Z,16.50
2024-02-27T10:59:54.643Z,18.80
2024-02-27T11:02:22.707Z,17.10
2024-02-27T11:04:53.586Z,17.63
2024-02-27T11:07:22.311Z,15.43
2024-02-27T11:09:53.531Z,18.50
2024-02-27T11:12:22.719Z,15.97
2024-02-27T11:14:58.341Z,17.80
2024-02-27T11:17:29.280Z,17.07
2024-02-27T11:19:57.142Z,16.97
2024-02-27T11:22:25.709Z,14.63
2024-02-27T11:24:55.696Z,17.37
2024-02-27T11:27:25.391Z,16.27
2024-02-27T11:29:54.122Z,16.97
2024-02-27T11:32:22.749Z,15.90
2024-02-27T11:34:50.764Z,16.23
2024-02-27T11:37:21.220Z,17.17
2024-02-27T11:39:49.973Z,18.97
2024-02-27T11:42:29.403Z,17.23
2024-02-27T11:45:05.250Z,17.03
2024-02-27T11:47:42.905Z,15.50
2024-02-27T11:50:11.586Z,16.00
2024-02-27T11:52:43.725Z,15.07
2024-02-27T11:55:13.502Z,13.30
2024-02-27T11:57:42.696Z,13.23
2024-02-27T12:00:15.882Z,14.90
2024-02-27T12:02:49.082Z,15.40
2024-02-27T12:05:18.078Z,16.17
2024-02-27T12:07:46.047Z,13.53
2024-02-27T12:10:15.357Z,15.30
2024-02-27T12:12:46.057Z,13.97
2024-02-27T12:15:14.310Z,14.97
2024-02-27T12:17:42.411Z,14.27
2024-02-27T12:20:11.867Z,19.00
2024-02-27T12:22:41.012Z,16.03
2024-02-27T12:25:10.063Z,16.73
2024-02-27T12:27:38.920Z,17.77
2024-02-27T12:30:11.547Z,16.57
2024-02-27T12:32:40.855Z,19.20
2024-02-27T12:35:10.514Z,16.00
2024-02-27T12:37:42.172Z,18.77
2024-02-27T12:40:13.497Z,16.83
2024-02-27T12:42:42.715Z,16.27
2024-02-27T12:45:13.118Z,16.60
2024-02-27T12:47:41.833Z,16.97
2024-02-27T12:50:11.032Z,18.30
2024-02-27T12:52:39.981Z,16.70
2024-02-27T12:55:09.805Z,17.57
2024-02-27T12:57:37.926Z,15.47
2024-02-27T13:00:09.390Z,16.20
2024-02-27T13:02:38.531Z,15.60
2024-02-27T13:05:09.036Z,16.20
2024-02-27T13:07:39.730Z,19.27
2024-02-27T13:10:08.427Z,16.53
2024-02-27T13:12:36.130Z,16.03
2024-02-27T13:15:04.442Z,16.63
2024-02-27T13:17:32.270Z,18.63
2024-02-27T13:20:01.441Z,15.07
2024-02-27T13:22:29.077Z,15.13
2024-02-27T13:24:57.493Z,15.33
2024-02-27T13:27:25.642Z,16.87
2024-02-27T13:29:54.806Z,19.83
2024-02-27T13:32:22.544Z,16.40
2024-02-27T13:34:50.383Z,15.27
2024-02-27T13:37:19.660Z,17.47
2024-02-27T13:39:47.377Z,16.90
2024-02-27T13:42:15.621Z,17.53
2024-02-27T13:44:43.434Z,16.10
2024-02-27T13:47:11.557Z,19.57
2024-02-27T13:49:39.904Z,16.33
2024-02-27T13:52:08.063Z,17.83
2024-02-27T13:54:38.124Z,16.20
2024-02-27T13:57:05.888Z,18.87
2024-02-27T13:59:33.651Z,17.63
2024-02-27T14:02:02.335Z,18.33
2024-02-27T14:04:30.588Z,16.60
2024-02-27T14:06:58.731Z,19.73
2024-02-27T14:09:26.488Z,16.60
2024-02-27T14:11:55.562Z,18.27
2024-02-27T14:14:23.295Z,17.67
2024-02-27T14:16:50.905Z,14.10
2024-02-27T14:19:18.665Z,15.63
2024-02-27T14:21:46.629Z,18.03
2024-02-27T14:24:14.333Z,14.60
2024-02-27T14:26:41.965Z,18.43
2024-02-27T14:29:10.949Z,16.10
2024-02-27T14:31:38.622Z,14.60
2024-02-27T14:34:06.617Z,14.03
2024-02-27T14:36:35.839Z,16.10
2024-02-27T14:39:03.627Z,14.43
2024-02-27T14:41:31.310Z,16.20
2024-02-27T14:43:59.483Z,15.37
2024-02-27T14:46:29.120Z,15.23
2024-02-27T14:48:56.803Z,18.33
2024-02-27T14:51:24.552Z,15.17
2024-02-27T14:53:52.248Z,15.53
2024-02-27T14:56:19.930Z,14.37
2024-02-27T14:58:47.543Z,14.50
2024-02-27T15:01:15.302Z,19.97
2024-02-27T15:03:44.419Z,16.87
2024-02-27T15:06:13.769Z,16.63
2024-02-27T15:08:41.558Z,19.70
2024-02-27T15:11:09.616Z,15.57
2024-02-27T15:13:37.344Z,14.70
2024-02-27T15:16:05.926Z,15.93
2024-02-27T15:18:33.656Z,14.97
2024-02-27T15:21:06.157Z,13.80
2024-02-27T15:23:33.786Z,13.83
2024-02-27T15:26:01.589Z,17.67
2024-02-27T15:28:29.281Z,16.33
2024-02-27T15:30:57.042Z,16.47
2024-02-27T15:33:24.897Z,14.63
2024-02-27T15:35:52.659Z,15.63
2024-02-27T15:38:21.689Z,15.90
2024-02-27T15:40:49.365Z,16.17
2024-02-27T15:43:17.192Z,12.60
2024-02-27T15:45:45.415Z,16.83
2024-02-27T15:48:13.198Z,17.50
2024-02-27T15:50:40.993Z,15.70
2024-02-27T15:53:08.800Z,17.83
2024-02-27T15:55:37.977Z,15.70
2024-02-27T15:58:05.797Z,16.03
2024-02-27T16:00:33.530Z,20.70
2024-02-27T16:03:09.129Z,17.47
2024-02-27T16:05:36.988Z,17.43
2024-02-27T16:08:05.085Z,14.80
2024-02-27T16:10:32.987Z,15.73
2024-02-27T16:13:02.052Z,15.03
2024-02-27T16:15:31.012Z,17.83
2024-02-27T16:18:00.971Z,18.47
2024-02-27T16:20:28.648Z,16.93
2024-02-27T16:22:56.242Z,16.73
2024-02-27T16:25:24.129Z,15.73
2024-02-27T16:27:53.267Z,19.40
2024-02-27T16:30:22.336Z,16.27
2024-02-27T16:32:50.280Z,22.53
2024-02-27T16:35:18.470Z,22.60
2024-02-27T16:37:46.279Z,19.87
2024-02-27T16:40:14.761Z,13.80
2024-02-27T16:42:42.980Z,15.13
2024-02-27T16:45:10.879Z,19.20
2024-02-27T16:47:39.961Z,15.20
2024-02-27T16:50:08.308Z,17.17
2024-02-27T16:52:36.035Z,19.93
2024-02-27T16:55:03.813Z,17.30
2024-02-27T16:57:31.589Z,17.37
2024-02-27T16:59:59.625Z,14.90
2024-02-27T17:02:27.418Z,14.43
2024-02-27T17:04:56.524Z,15.57
2024-02-27T17:07:26.107Z,15.33
2024-02-27T17:09:53.928Z,18.57
2024-02-27T17:12:21.598Z,14.37
2024-02-27T17:14:49.223Z,18.37
2024-02-27T17:17:16.903Z,14.50
2024-02-27T17:19:44.692Z,17.07
2024-02-27T17:22:13.836Z,14.97
2024-02-27T17:24:41.526Z,16.90
2024-02-27T17:27:10.320Z,16.77
2024-02-27T17:29:37.979Z,18.13
2024-02-27T17:32:06.336Z,21.33
2024-02-27T17:34:34.245Z,19.50
2024-02-27T17:37:03.708Z,19.23
2024-02-27T17:39:34.021Z,18.03
2024-02-27T17:42:01.659Z,15.27
2024-02-27T17:44:30.495Z,18.57
2024-02-27T17:46:58.157Z,17.73
2024-02-27T17:49:25.834Z,15.47
2024-02-27T17:51:53.706Z,14.43
2024-02-27T17:54:21.429Z,16.20
2024-02-27T17:56:50.968Z,19.00
2024-02-27T17:59:18.838Z,21.43
2024-02-27T18:01:46.542Z,18.97
2024-02-27T18:04:14.338Z,16.33
2024-02-27T18:06:42.138Z,17.27
2024-02-27T18:09:10.268Z,17.63
2024-02-27T18:11:37.940Z,15.40
2024-02-27T18:14:07.142Z,17.10
2024-02-27T18:16:34.767Z,17.33
2024-02-27T18:19:03.286Z,16.77
2024-02-27T18:21:31.061Z,15.27
2024-02-27T18:23:58.685Z,18.60
2024-02-27T18:26:26.331Z,19.23
2024-02-27T18:28:53.951Z,17.00
2024-02-27T18:31:23.489Z,17.00
2024-02-27T18:33:51.484Z,17.80
2024-02-27T18:36:19.192Z,16.83
2024-02-27T18:38:46.876Z,17.97
2024-02-27T18:41:14.766Z,17.83
2024-02-27T18:43:42.494Z,19.17
2024-02-27T18:46:12.419Z,20.77
2024-02-27T18:48:41.664Z,19.90
2024-02-27T18:51:11.561Z,19.07
2024-02-27T18:53:40.464Z,16.63
2024-02-27T18:56:08.839Z,16.50
2024-02-27T18:58:36.608Z,17.07
2024-02-27T19:01:05.096Z,28.00
2024-02-27T19:03:33.237Z,19.33
2024-02-27T19:06:04.602Z,18.97
2024-02-27T19:08:32.328Z,19.10
2024-02-27T19:11:01.240Z,18.77
2024-02-27T19:13:29.350Z,18.20
2024-02-27T19:15:57.111Z,19.37
2024-02-27T19:18:25.027Z,18.83
2024-02-27T19:20:52.777Z,19.03
2024-02-27T19:23:21.758Z,16.70
2024-02-27T19:25:49.672Z,15.20
2024-02-27T19:28:17.326Z,17.30
2024-02-27T19:30:46.817Z,19.13
2024-02-27T19:33:15.591Z,15.47
2024-02-27T19:35:43.875Z,20.87
2024-02-27T19:38:18.340Z,22.97
2024-02-27T19:40:48.551Z,23.30
2024-02-27T19:43:16.729Z,18.57
2024-02-27T19:45:46.039Z,20.27
2024-02-27T19:48:14.014Z,17.77
2024-02-27T19:50:44.469Z,16.57
2024-02-27T19:53:12.130Z,18.20
2024-02-27T19:55:40.748Z,21.80
2024-02-27T19:58:09.784Z,21.17
2024-02-27T20:00:38.163Z,19.73
2024-02-27T20:03:06.819Z,16.23
2024-02-27T20:05:34.989Z,19.23
2024-02-27T20:08:02.840Z,23.37
2024-02-27T20:10:31.149Z,21.70
2024-02-27T20:12:58.824Z,20.33
2024-02-27T20:15:27.912Z,20.23
2024-02-27T20:17:56.312Z,19.37
2024-02-27T20:20:23.976Z,18.17
2024-02-27T20:22:51.677Z,22.13
2024-02-27T20:25:19.554Z,24.90
2024-02-27T20:27:47.511Z,19.77
2024-02-27T20:30:15.520Z,26.07
2024-02-27T20:32:44.870Z,22.93
2024-02-27T20:35:12.551Z,24.47
2024-02-27T20:37:40.271Z,21.83
2024-02-27T20:40:10.221Z,21.70
2024-02-27T20:42:37.905Z,22.87
2024-02-27T20:45:06.758Z,26.67
2024-02-27T20:47:36.210Z,23.43
2024-02-27T20:50:10.640Z,23.23
2024-02-27T20:52:39.096Z,22.30
2024-02-27T20:55:07.863Z,22.30
2024-02-27T20:57:35.702Z,22.00
2024-02-27T21:00:03.954Z,21.67
2024-02-27T21:02:34.335Z,21.33
2024-02-27T21:05:02.032Z,21.93
2024-02-27T21:07:31.298Z,17.97
2024-02-27T21:09:59.054Z,23.07
2024-02-27T21:12:27.053Z,21.43
2024-02-27T21:14:57.030Z,20.30
2024-02-27T21:17:26.844Z,20.70
2024-02-27T21:19:54.616Z,19.93
2024-02-27T21:22:22.244Z,20.23
2024-02-27T21:24:51.328Z,23.13
2024-02-27T21:27:19.490Z,24.80
2024-02-27T21:29:47.178Z,23.63
2024-02-27T21:32:15.773Z,22.13
2024-02-27T21:34:43.749Z,27.27
2024-02-27T21:37:11.460Z,22.57
2024-02-27T21:39:39.213Z,14.53
2024-02-27T21:42:08.926Z,18.30
2024-02-27T21:44:36.688Z,20.50
2024-02-27T21:47:04.371Z,22.67
2024-02-27T21:49:32.247Z,22.03
2024-02-27T21:52:03.543Z,21.90
2024-02-27T21:54:32.153Z,19.63
2024-02-27T21:56:59.839Z,20.97
2024-02-27T21:59:28.812Z,19.33
2024-02-27T22:01:56.499Z,24.43
2024-02-27T22:04:24.243Z,22.90
2024-02-27T22:06:51.875Z,19.70
2024-02-27T22:09:19.649Z,19.40
2024-02-27T22:11:47.499Z,22.50
2024-02-27T22:14:15.154Z,25.20
2024-02-27T22:16:44.182Z,25.80
2024-02-27T22:19:12.170Z,25.47
2024-02-27T22:21:40.197Z,22.63
2024-02-27T22:24:08.270Z,25.77
2024-02-27T22:26:37.128Z,23.67
2024-02-27T22:29:04.791Z,26.50
2024-02-27T22:31:32.536Z,25.80
2024-02-27T22:34:03.022Z,25.87
2024-02-27T22:36:30.825Z,27.40
2024-02-27T22:38:58.467Z,31.00
2024-02-27T22:41:26.094Z,29.20
2024-02-27T22:43:53.705Z,28.27
2024-02-27T22:46:25.720Z,34.20
2024-02-27T22:48:53.601Z,36.27
2024-02-27T22:51:22.753Z,31.47
2024-02-27T22:53:50.770Z,29.20
2024-02-27T22:56:18.456Z,34.40
2024-02-27T22:58:46.131Z,32.23
2024-02-27T23:01:14.091Z,32.93
2024-02-27T23:03:41.776Z,32.67
2024-02-27T23:06:09.504Z,33.47
2024-02-27T23:08:38.657Z,33.47
2024-02-27T23:11:06.562Z,31.50
2024-02-27T23:13:34.394Z,33.97
2024-02-27T23:16:02.241Z,35.27
2024-02-27T23:18:29.869Z,38.07
2024-02-27T23:20:57.599Z,38.67
2024-02-27T23:23:25.308Z,36.80
2024-02-27T23:25:54.284Z,36.03
2024-02-27T23:28:25.394Z,36.80
2024-02-27T23:30:53.912Z,36.43
2024-02-27T23:33:21.744Z,38.40
2024-02-27T23:35:49.731Z,38.27
2024-02-27T23:38:18.416Z,35.83
2024-02-27T23:40:47.051Z,39.63
2024-02-27T23:43:16.175Z,37.60
2024-02-27T23:45:44.078Z,38.40
2024-02-27T23:48:11.835Z,41.30
2024-02-27T23:50:39.528Z,38.43
2024-02-27T23:53:07.274Z,42.43
2024-02-27T23:55:35.412Z,39.10
2024-02-27T23:58:03.480Z,39.03
